Island Lookout — WDF6311 — position and weather

sailwx.info

Track history (hours):
 
Tides and Currents Weather Stations Pressure Air Temp Water Temp Dewpoint Dewpoint Depression Visibility Wind Speed Wind Dir Waves Ship Positions

Island Lookout

Owner: Stevens Towing Company Inc., Yonges Island, SC. More information available from US FCC via Universal Licensing System and Coast Guard Vessel Documentation Center.

Last reported at 2017-Jun-22 20:31 UTC. Time now 2017-Jun-22 20:51 UTC.
Position N 39°56' W 075°08'.

Length 22 m; draft 2.9 m.

Type: Towing. MMSI: 367472930.

Date/timePositionNaut miles runAvg speedWind from/ knotsBaromVisibWave heightAir tempDewpointWater temp
2017-Jun-22 20:31N 39°56' W 075°08'0 0.0
2017-Jun-22 20:00N 39°56' W 075°08'0 0.0
2017-Jun-22 19:31N 39°56' W 075°08'0 1.0
2017-Jun-22 19:00N 39°55' W 075°08'3 5.6
2017-Jun-22 18:30N 39°53' W 075°09'3 6.8
2017-Jun-22 18:00N 39°52' W 075°14'1 2.6
2017-Jun-22 17:30N 39°51' W 075°15'0 0.0
2017-Jun-22 17:00N 39°51' W 075°15'0 0.0
2017-Jun-22 16:31N 39°51' W 075°15'0 0.6
2017-Jun-22 16:00N 39°51' W 075°15'3 6.0
2017-Jun-22 15:30N 39°53' W 075°11'2 4.9
2017-Jun-22 15:00N 39°53' W 075°08'2 4.7
2017-Jun-22 14:31N 39°56' W 075°08'0 0.4
2017-Jun-22 13:30N 39°56' W 075°08'1 2.0
2017-Jun-22 13:00N 39°55' W 075°08'3 6.4
2017-Jun-22 12:31N 39°53' W 075°11'4 7.5
2017-Jun-22 12:01N 39°51' W 075°15'3 7.0
2017-Jun-22 11:31N 39°51' W 075°20'3 6.3
2017-Jun-22 11:00N 39°49' W 075°23'3 5.9
2017-Jun-22 10:30N 39°48' W 075°26'3 5.5
2017-Jun-22 10:00N 39°46' W 075°29'3 5.5
2017-Jun-22 09:30N 39°43' W 075°30'3 5.2
2017-Jun-22 09:00N 39°41' W 075°31'2 4.7
2017-Jun-22 08:30N 39°39' W 075°33'2 4.7
2017-Jun-22 08:00N 39°37' W 075°34'2 4.9
2017-Jun-22 07:30N 39°34' W 075°33'3 5.6
2017-Jun-22 07:01N 39°33' W 075°36'3 6.4
2017-Jun-22 06:31N 39°33' W 075°41'3 6.2
2017-Jun-22 06:00N 39°32' W 075°45'3 5.8
2017-Jun-22 05:30N 39°32' W 075°48'3 5.3
2017-Jun-22 05:01N 39°32' W 075°52'3 5.4
2017-Jun-22 04:30N 39°30' W 075°55'3 5.5
2017-Jun-22 04:01N 39°29' W 075°57'3 5.7
2017-Jun-22 03:30N 39°26' W 075°60'3 5.9
2017-Jun-22 03:01N 39°24' W 076°03'3 5.9
2017-Jun-22 02:31N 39°23' W 076°06'3 5.8
2017-Jun-22 02:00N 39°21' W 076°09'3 5.7
2017-Jun-22 01:31N 39°20' W 076°12'3 6.1
2017-Jun-22 01:00N 39°17' W 076°14'3 6.5
2017-Jun-22 00:30N 39°14' W 076°15'3 6.4
2017-Jun-22 00:00N 39°11' W 076°17'5 5.9
2017-Jun-21 23:13N 39°07' W 076°20'5 7.0
2017-Jun-21 22:29N 39°02' W 076°22'5 7.2
2017-Jun-21 21:49N 38°58' W 076°24'5 7.4
2017-Jun-21 21:08N 38°53' W 076°25'1 7.4
2017-Jun-21 20:58N 38°51' W 076°26'116 6.3
2017-Jun-21 02:31N 36°55' W 076°20'4 7.5
2017-Jun-21 02:00N 36°52' W 076°19'3 6.7
2017-Jun-21 01:30N 36°48' W 076°17'2 4.7
2017-Jun-21 01:00N 36°46' W 076°18'2 4.1
2017-Jun-21 00:27N 36°44' W 076°17'2 3.5
2017-Jun-20 23:54N 36°43' W 076°15'0 0.2
2017-Jun-20 23:30N 36°43' W 076°15'106 3.9
2017-Jun-19 20:09N 34°60' W 076°41'1 6.8
2017-Jun-19 20:00N 34°59' W 076°41'3 6.1
2017-Jun-19 19:30N 34°56' W 076°39'3 6.2
2017-Jun-19 18:58N 34°53' W 076°41'3 7.2
2017-Jun-19 18:30N 34°50' W 076°41'4 7.0
2017-Jun-19 18:00N 34°47' W 076°41'3 6.7
2017-Jun-19 17:30N 34°43' W 076°42'1 2.9
2017-Jun-19 17:00N 34°43' W 076°43'3 6.4
2017-Jun-19 16:31N 34°43' W 076°47'3 5.5
2017-Jun-19 16:00N 34°43' W 076°50'3 6.3
2017-Jun-19 15:29N 34°43' W 076°55'  
Track history (hours):
 
Tides and Currents Weather Stations Pressure Air Temp Water Temp Dewpoint Dewpoint Depression Visibility Wind Speed Wind Dir Waves Ship Positions

Island Lookout

Owner: Stevens Towing Company Inc., Yonges Island, SC. More information available from US FCC via Universal Licensing System and Coast Guard Vessel Documentation Center.

Last reported at 2017-Jun-22 20:31 UTC. Time now 2017-Jun-22 20:51 UTC.
Position N 39°56' W 075°08'.

Length 22 m; draft 2.9 m.

Type: Towing. MMSI: 367472930.

Date/timePositionNaut miles runAvg speedWind from/ knotsBaromVisibWave heightAir tempDewpointWater temp
2017-Jun-22 20:31N 39°56' W 075°08'0 0.0
2017-Jun-22 20:00N 39°56' W 075°08'0 0.0
2017-Jun-22 19:31N 39°56' W 075°08'0 1.0
2017-Jun-22 19:00N 39°55' W 075°08'3 5.6
2017-Jun-22 18:30N 39°53' W 075°09'3 6.8
2017-Jun-22 18:00N 39°52' W 075°14'1 2.6
2017-Jun-22 17:30N 39°51' W 075°15'0 0.0
2017-Jun-22 17:00N 39°51' W 075°15'0 0.0
2017-Jun-22 16:31N 39°51' W 075°15'0 0.6
2017-Jun-22 16:00N 39°51' W 075°15'3 6.0
2017-Jun-22 15:30N 39°53' W 075°11'2 4.9
2017-Jun-22 15:00N 39°53' W 075°08'2 4.7
2017-Jun-22 14:31N 39°56' W 075°08'0 0.4
2017-Jun-22 13:30N 39°56' W 075°08'1 2.0
2017-Jun-22 13:00N 39°55' W 075°08'3 6.4
2017-Jun-22 12:31N 39°53' W 075°11'4 7.5
2017-Jun-22 12:01N 39°51' W 075°15'3 7.0
2017-Jun-22 11:31N 39°51' W 075°20'3 6.3
2017-Jun-22 11:00N 39°49' W 075°23'3 5.9
2017-Jun-22 10:30N 39°48' W 075°26'3 5.5
2017-Jun-22 10:00N 39°46' W 075°29'3 5.5
2017-Jun-22 09:30N 39°43' W 075°30'3 5.2
2017-Jun-22 09:00N 39°41' W 075°31'2 4.7
2017-Jun-22 08:30N 39°39' W 075°33'2 4.7
2017-Jun-22 08:00N 39°37' W 075°34'2 4.9
2017-Jun-22 07:30N 39°34' W 075°33'3 5.6
2017-Jun-22 07:01N 39°33' W 075°36'3 6.4
2017-Jun-22 06:31N 39°33' W 075°41'3 6.2
2017-Jun-22 06:00N 39°32' W 075°45'3 5.8
2017-Jun-22 05:30N 39°32' W 075°48'3 5.3
2017-Jun-22 05:01N 39°32' W 075°52'3 5.4
2017-Jun-22 04:30N 39°30' W 075°55'3 5.5
2017-Jun-22 04:01N 39°29' W 075°57'3 5.7
2017-Jun-22 03:30N 39°26' W 075°60'3 5.9
2017-Jun-22 03:01N 39°24' W 076°03'3 5.9
2017-Jun-22 02:31N 39°23' W 076°06'3 5.8
2017-Jun-22 02:00N 39°21' W 076°09'3 5.7
2017-Jun-22 01:31N 39°20' W 076°12'3 6.1
2017-Jun-22 01:00N 39°17' W 076°14'3 6.5
2017-Jun-22 00:30N 39°14' W 076°15'3 6.4
2017-Jun-22 00:00N 39°11' W 076°17'5 5.9
2017-Jun-21 23:13N 39°07' W 076°20'5 7.0
2017-Jun-21 22:29N 39°02' W 076°22'5 7.2
2017-Jun-21 21:49N 38°58' W 076°24'5 7.4
2017-Jun-21 21:08N 38°53' W 076°25'1 7.4
2017-Jun-21 20:58N 38°51' W 076°26'116 6.3
2017-Jun-21 02:31N 36°55' W 076°20'4 7.5
2017-Jun-21 02:00N 36°52' W 076°19'3 6.7
2017-Jun-21 01:30N 36°48' W 076°17'2 4.7
2017-Jun-21 01:00N 36°46' W 076°18'2 4.1
2017-Jun-21 00:27N 36°44' W 076°17'2 3.5
2017-Jun-20 23:54N 36°43' W 076°15'0 0.2
2017-Jun-20 23:30N 36°43' W 076°15'106 3.9
2017-Jun-19 20:09N 34°60' W 076°41'1 6.8
2017-Jun-19 20:00N 34°59' W 076°41'3 6.1
2017-Jun-19 19:30N 34°56' W 076°39'3 6.2
2017-Jun-19 18:58N 34°53' W 076°41'3 7.2
2017-Jun-19 18:30N 34°50' W 076°41'4 7.0
2017-Jun-19 18:00N 34°47' W 076°41'3 6.7
2017-Jun-19 17:30N 34°43' W 076°42'1 2.9
2017-Jun-19 17:00N 34°43' W 076°43'3 6.4
2017-Jun-19 16:31N 34°43' W 076°47'3 5.5
2017-Jun-19 16:00N 34°43' W 076°50'3 6.3
2017-Jun-19 15:29N 34°43' W 076°55'  

Dump ship's entire track history